• vieta
  • image
  • image
  • image

Šiandien

Penktadienis, 31 Spalis 2014

Orų prognozė

Šiauliai 0 °C
   

Orų prognozė aviacijai

[source: ADDS]
METAR
EYSA 311850Z 24003KT 0800 R32R/P2000D FZFG NSC M00/M01 Q1026 =
TAF
TAF EYSA 311700Z 3118/0103 VRB04KT 1500 BR SCT005 BKN015 TEMPO 3118/3121 0500 FG VV002 BECMG 3121/3122 0350 FG VV002 =
SR / SS: 05:30 / 14:52 UTC (EYSA 2014-10-31)

Lankytojai

Mes turime 4 svečius online

tic logo lt